Time;durP1;ratioP1;P1;durP2;ratioP2;P2;SDS_P1;SDS_P2;PMS_P1;PMS_P2;Temp;Humidity;BMP_temperature;BMP_pressure;BME280_temperature;BME280_humidity;BME280_pressure;Samples;Min_cycle;Max_cycle;Signal;HPM_P1;HPM_P2
2021/04/10 00:00:31;;;;;;;5.57;2.00;;;10.70;99.90;;;;;;5071523;28;20202;-76
2021/04/10 00:02:58;;;;;;;8.27;2.13;;;10.60;99.90;;;;;;5071381;28;20209;-76
2021/04/10 00:05:26;;;;;;;13.33;3.67;;;10.60;99.90;;;;;;5071653;28;20206;-76
2021/04/10 00:07:53;;;;;;;6.23;2.60;;;10.60;99.90;;;;;;5070902;28;20674;-77
2021/04/10 00:10:20;;;;;;;5.50;2.10;;;10.40;99.90;;;;;;5071403;28;20214;-76
2021/04/10 00:12:47;;;;;;;10.30;2.53;;;10.50;99.90;;;;;;5070561;28;20213;-76
2021/04/10 00:15:16;;;;;;;6.73;2.73;;;10.60;99.90;;;;;;5071384;28;20256;-78
2021/04/10 00:17:44;;;;;;;11.07;2.13;;;10.50;99.90;;;;;;5070716;28;20213;-76
2021/04/10 00:20:14;;;;;;;7.10;2.07;;;10.50;99.90;;;;;;5071417;28;20202;-76
2021/04/10 00:22:40;;;;;;;8.17;1.97;;;10.40;99.90;;;;;;5070586;28;20670;-76
2021/04/10 00:25:08;;;;;;;4.00;2.10;;;10.00;99.90;;;;;;5071316;28;20202;-78
2021/04/10 00:27:35;;;;;;;7.87;2.30;;;11.50;99.90;;;;;;5071046;28;20213;-76
2021/04/10 00:30:02;;;;;;;5.13;1.83;;;;;;;;;;5071125;28;20279;-75
2021/04/10 00:32:28;;;;;;;8.17;3.67;;;10.80;99.90;;;;;;5070946;28;20619;-74
2021/04/10 00:34:56;;;;;;;13.60;2.20;;;10.50;99.90;;;;;;5070885;28;20229;-80
2021/04/10 00:37:22;;;;;;;15.43;2.97;;;10.40;99.90;;;;;;5070753;28;20206;-77
2021/04/10 00:39:48;;;;;;;10.73;2.87;;;10.40;99.90;;;;;;5070527;28;20669;-79
2021/04/10 00:42:15;;;;;;;13.23;2.53;;;10.30;99.90;;;;;;5070532;28;20593;-76
2021/04/10 00:44:42;;;;;;;5.77;2.00;;;;;;;;;;5070862;28;20206;-76
2021/04/10 00:47:08;;;;;;;10.30;2.27;;;11.10;99.90;;;;;;5070783;28;20268;-76
2021/04/10 00:49:35;;;;;;;4.70;1.93;;;10.40;99.90;;;;;;5071201;28;20206;-76
2021/04/10 00:52:02;;;;;;;9.60;3.10;;;10.40;99.90;;;;;;5070928;28;20205;-75
2021/04/10 00:54:29;;;;;;;8.47;2.77;;;10.40;99.90;;;;;;5070727;28;20209;-76
2021/04/10 00:56:55;;;;;;;14.70;2.93;;;10.40;99.90;;;;;;5070454;28;20283;-75
2021/04/10 00:59:22;;;;;;;6.80;3.17;;;10.40;99.90;;;;;;5070479;28;20727;-76
2021/04/10 01:01:48;;;;;;;6.43;2.60;;;10.40;99.90;;;;;;5070747;28;20202;-75
2021/04/10 01:04:15;;;;;;;8.73;2.13;;;10.40;99.90;;;;;;5070861;28;20340;-76
2021/04/10 01:06:41;;;;;;;5.33;2.23;;;10.40;99.90;;;;;;5070122;28;20221;-78
2021/04/10 01:09:09;;;;;;;9.30;2.93;;;10.50;99.90;;;;;;5070111;28;20590;-75
2021/04/10 01:11:44;;;;;;;7.73;1.80;;;10.50;99.90;;;;;;5070771;28;20210;-75
2021/04/10 01:14:27;;;;;;;5.73;2.57;;;10.50;99.90;;;;;;5070899;28;20213;-77
2021/04/10 01:16:59;;;;;;;8.50;2.03;;;10.50;99.90;;;;;;5070214;28;20225;-76
2021/04/10 01:19:49;;;;;;;5.30;1.90;;;10.50;99.90;;;;;;5070220;28;20209;-75
2021/04/10 01:22:31;;;;;;;4.37;1.93;;;10.50;99.90;;;;;;5067980;28;20275;-75
2021/04/10 01:25:01;;;;;;;9.67;1.83;;;10.50;99.90;;;;;;5070021;28;20574;-76
2021/04/10 01:27:37;;;;;;;11.13;2.83;;;10.50;99.90;;;;;;5070680;28;20614;-77
2021/04/10 01:30:09;;;;;;;4.73;2.63;;;10.60;99.90;;;;;;5070714;28;20293;-75
2021/04/10 01:32:40;;;;;;;5.73;2.93;;;10.60;99.90;;;;;;5070372;28;20202;-75
2021/04/10 01:35:09;;;;;;;11.37;2.90;;;10.60;99.90;;;;;;5070503;28;20210;-76
2021/04/10 01:37:41;;;;;;;7.77;2.77;;;10.50;99.90;;;;;;5070805;28;20205;-75
2021/04/10 01:40:09;;;;;;;7.07;2.10;;;10.60;99.90;;;;;;5070418;28;20202;-74
2021/04/10 01:42:39;;;;;;;6.53;2.43;;;10.70;99.90;;;;;;5070336;28;20202;-74
2021/04/10 01:45:09;;;;;;;12.73;2.27;;;10.60;99.90;;;;;;5072096;28;20202;-73
2021/04/10 01:47:38;;;;;;;9.97;2.30;;;10.60;99.90;;;;;;5074438;28;20218;-75
2021/04/10 01:50:06;;;;;;;4.57;1.97;;;10.70;99.90;;;;;;5074508;28;20586;-74
2021/04/10 01:52:33;;;;;;;7.43;2.63;;;10.70;99.90;;;;;;5074488;28;20202;-79
2021/04/10 01:55:00;;;;;;;5.13;2.10;;;10.80;99.90;;;;;;5073648;28;20209;-73
2021/04/10 01:57:29;;;;;;;9.13;3.33;;;10.80;99.90;;;;;;5074054;28;20260;-74
2021/04/10 01:59:58;;;;;;;10.03;2.40;;;10.80;99.90;;;;;;5073979;28;20561;-73
2021/04/10 02:02:26;;;;;;;7.10;2.30;;;10.80;99.90;;;;;;5073627;28;20213;-73
2021/04/10 02:04:53;;;;;;;7.70;2.60;;;10.80;99.90;;;;;;5072040;28;20694;-73
2021/04/10 02:07:24;;;;;;;7.13;2.30;;;10.70;99.90;;;;;;5073599;28;20638;-72
2021/04/10 02:09:51;;;;;;;8.30;2.30;;;10.70;99.90;;;;;;5073678;28;20202;-71
2021/04/10 02:12:20;;;;;;;6.03;1.90;;;10.60;99.90;;;;;;5073821;28;20578;-72
2021/04/10 02:14:48;;;;;;;6.13;2.20;;;10.60;99.90;;;;;;5073364;28;20260;-72
2021/04/10 02:17:17;;;;;;;4.70;2.03;;;10.60;99.90;;;;;;5073819;28;20230;-75
2021/04/10 02:19:45;;;;;;;7.67;2.77;;;10.60;99.90;;;;;;5072829;28;20301;-72
2021/04/10 02:22:12;;;;;;;4.87;2.33;;;10.60;99.90;;;;;;5073508;28;20209;-72
2021/04/10 02:24:38;;;;;;;8.10;2.27;;;10.50;99.90;;;;;;5073462;28;20209;-73
2021/04/10 02:27:05;;;;;;;7.70;2.30;;;10.60;99.90;;;;;;5073888;28;20669;-74
2021/04/10 02:29:32;;;;;;;5.80;2.10;;;10.60;99.90;;;;;;5073733;28;20673;-72
2021/04/10 02:32:05;;;;;;;6.27;3.00;;;10.60;99.90;;;;;;5072862;28;20206;-72
2021/04/10 02:34:35;;;;;;;4.17;2.13;;;10.60;99.90;;;;;;5073622;28;20210;-74
2021/04/10 02:37:02;;;;;;;7.63;2.10;;;10.60;99.90;;;;;;5072784;28;20229;-73
2021/04/10 02:39:30;;;;;;;4.43;1.77;;;10.60;99.90;;;;;;5073445;28;20609;-74
2021/04/10 02:42:02;;;;;;;8.53;2.70;;;10.70;99.90;;;;;;5072916;28;20210;-74
2021/04/10 02:44:36;;;;;;;7.87;2.03;;;10.70;99.90;;;;;;5073112;28;20207;-73
2021/04/10 02:47:07;;;;;;;7.70;2.17;;;10.70;99.90;;;;;;5072723;28;20217;-74
2021/04/10 02:49:38;;;;;;;10.90;2.00;;;10.70;99.90;;;;;;5073646;28;20206;-73
2021/04/10 02:52:07;;;;;;;6.63;1.80;;;10.80;99.90;;;;;;5073138;28;20206;-73
2021/04/10 02:54:37;;;;;;;10.47;2.63;;;10.80;99.90;;;;;;5073491;28;20256;-73
2021/04/10 02:57:09;;;;;;;12.93;2.87;;;10.60;99.90;;;;;;5072884;28;20295;-73
2021/04/10 02:59:39;;;;;;;9.10;2.63;;;10.60;99.90;;;;;;5073314;28;20281;-73
2021/04/10 03:02:07;;;;;;;10.17;2.53;;;10.70;99.90;;;;;;5073009;28;20202;-72
2021/04/10 03:04:36;;;;;;;10.17;2.77;;;10.70;99.90;;;;;;5073273;28;20210;-72
2021/04/10 03:07:07;;;;;;;5.00;1.70;;;10.70;99.90;;;;;;5072877;28;20259;-74
2021/04/10 03:09:33;;;;;;;7.30;2.40;;;10.70;99.90;;;;;;5072922;28;20628;-73
2021/04/10 03:12:01;;;;;;;8.60;2.60;;;10.70;99.90;;;;;;5072127;28;20206;-73
2021/04/10 03:14:27;;;;;;;8.17;2.63;;;10.70;99.90;;;;;;5072406;28;20206;-73
2021/04/10 03:16:56;;;;;;;5.77;2.17;;;10.70;99.90;;;;;;5072222;28;20740;-72
2021/04/10 03:19:24;;;;;;;6.13;2.80;;;10.70;99.90;;;;;;5072285;28;20203;-79
2021/04/10 03:21:50;;;;;;;10.73;2.80;;;10.60;99.90;;;;;;5071920;28;20678;-75
2021/04/10 03:24:18;;;;;;;16.77;2.97;;;10.60;99.90;;;;;;5072533;28;20207;-74
2021/04/10 03:26:44;;;;;;;7.43;3.47;;;10.60;99.90;;;;;;5072110;28;20264;-72
2021/04/10 03:29:12;;;;;;;8.93;2.40;;;10.50;99.90;;;;;;5071998;28;20206;-72
2021/04/10 03:31:39;;;;;;;4.20;2.07;;;10.50;99.90;;;;;;5070634;28;20213;-71
2021/04/10 03:34:06;;;;;;;11.57;3.20;;;10.50;99.90;;;;;;5063978;28;20210;-75
2021/04/10 03:36:34;;;;;;;8.80;3.20;;;10.50;99.90;;;;;;5072410;28;20238;-76
2021/04/10 03:39:01;;;;;;;9.27;2.60;;;10.40;99.90;;;;;;5072229;28;20213;-77
2021/04/10 03:41:28;;;;;;;8.37;2.47;;;10.40;99.90;;;;;;5071968;28;20202;-76
2021/04/10 03:43:55;;;;;;;11.57;2.23;;;10.40;99.90;;;;;;5072020;28;20658;-76
2021/04/10 03:46:21;;;;;;;8.40;2.60;;;10.50;99.90;;;;;;5071939;28;20251;-76
2021/04/10 03:48:48;;;;;;;7.60;1.80;;;10.50;99.90;;;;;;5071116;28;20221;-76
2021/04/10 03:51:14;;;;;;;11.40;3.37;;;10.50;99.90;;;;;;5066937;28;20210;-73
2021/04/10 03:53:41;;;;;;;10.10;3.23;;;10.60;99.90;;;;;;5071659;28;20198;-74
2021/04/10 03:56:07;;;;;;;11.77;2.93;;;10.60;99.90;;;;;;5071915;28;20237;-75
2021/04/10 03:58:35;;;;;;;8.30;3.00;;;10.50;99.90;;;;;;5071906;28;20214;-74
2021/04/10 04:01:01;;;;;;;9.27;3.23;;;10.50;99.90;;;;;;5071634;28;20206;-79
2021/04/10 04:03:28;;;;;;;8.00;2.37;;;10.50;99.90;;;;;;5071224;28;20210;-77
2021/04/10 04:05:54;;;;;;;10.00;2.43;;;10.40;99.90;;;;;;5071165;28;20693;-74
2021/04/10 04:08:21;;;;;;;7.30;2.97;;;10.30;99.90;;;;;;5070828;28;20601;-75
2021/04/10 04:10:47;;;;;;;12.60;3.23;;;10.30;99.90;;;;;;5071009;28;20207;-76
2021/04/10 04:13:14;;;;;;;6.20;2.20;;;10.40;99.90;;;;;;5071742;28;20233;-79
2021/04/10 04:15:41;;;;;;;4.90;2.40;;;10.40;99.90;;;;;;5071259;28;20234;-75
2021/04/10 04:18:07;;;;;;;3.70;2.07;;;10.40;99.90;;;;;;5070861;28;20206;-76
2021/04/10 04:20:34;;;;;;;7.93;2.87;;;10.40;99.90;;;;;;5071447;28;20214;-76
2021/04/10 04:23:00;;;;;;;8.77;2.97;;;10.50;99.90;;;;;;5070610;28;20662;-75
2021/04/10 04:25:27;;;;;;;4.50;2.13;;;10.50;99.90;;;;;;5071275;28;20259;-74
2021/04/10 04:27:53;;;;;;;9.60;2.57;;;10.60;99.90;;;;;;5070936;28;20279;-74
2021/04/10 04:30:21;;;;;;;8.43;3.37;;;10.60;99.90;;;;;;5071216;28;20202;-76
2021/04/10 04:32:48;;;;;;;10.03;2.43;;;10.70;99.90;;;;;;5070997;28;20206;-74
2021/04/10 04:35:15;;;;;;;8.20;2.57;;;10.70;99.90;;;;;;5071013;28;20206;-81
2021/04/10 04:37:41;;;;;;;7.37;2.57;;;10.70;99.90;;;;;;5070646;28;20234;-76
2021/04/10 04:40:09;;;;;;;5.10;2.00;;;10.70;99.90;;;;;;5071041;28;20202;-77
2021/04/10 04:42:35;;;;;;;5.90;2.23;;;10.60;99.90;;;;;;5070207;28;20218;-75
2021/04/10 04:45:02;;;;;;;7.07;2.87;;;10.60;99.90;;;;;;5070460;28;20247;-76
2021/04/10 04:47:29;;;;;;;9.53;2.00;;;10.60;99.90;;;;;;5070516;28;20659;-76
2021/04/10 04:49:56;;;;;;;2.87;1.93;;;10.70;99.90;;;;;;5069809;28;20210;-76
2021/04/10 04:52:23;;;;;;;10.47;3.13;;;10.70;99.90;;;;;;5070764;28;20202;-75
2021/04/10 04:54:49;;;;;;;4.27;2.20;;;10.70;99.90;;;;;;5070275;28;20206;-75
2021/04/10 04:57:16;;;;;;;4.23;2.90;;;10.70;99.90;;;;;;5070265;28;20225;-76
2021/04/10 04:59:42;;;;;;;6.33;2.17;;;10.70;99.90;;;;;;5070176;28;20213;-77
2021/04/10 05:02:09;;;;;;;15.27;2.63;;;10.70;99.90;;;;;;5069776;28;20202;-77
2021/04/10 05:04:35;;;;;;;5.63;1.93;;;10.70;99.90;;;;;;5070785;28;20206;-77
2021/04/10 05:07:03;;;;;;;4.27;1.90;;;10.60;99.90;;;;;;5070541;28;20210;-75
2021/04/10 05:09:29;;;;;;;8.47;2.47;;;10.60;99.90;;;;;;5070525;28;20210;-76
2021/04/10 05:11:55;;;;;;;7.50;3.30;;;10.50;99.90;;;;;;5070106;28;20624;-76
2021/04/10 05:14:22;;;;;;;9.90;3.03;;;10.50;99.90;;;;;;5070348;28;20202;-75
2021/04/10 05:16:48;;;;;;;8.10;2.30;;;10.40;99.90;;;;;;5069769;28;20250;-77
2021/04/10 05:19:15;;;;;;;14.67;2.87;;;10.40;99.90;;;;;;5069220;28;20263;-76
2021/04/10 05:21:42;;;;;;;9.33;2.97;;;10.40;99.90;;;;;;5069943;28;20210;-76
2021/04/10 05:24:09;;;;;;;5.67;2.00;;;10.40;99.90;;;;;;5070123;28;20232;-75
2021/04/10 05:26:36;;;;;;;7.70;3.30;;;10.50;99.90;;;;;;5070227;28;20209;-77
2021/04/10 05:29:03;;;;;;;12.77;2.80;;;10.60;99.90;;;;;;5070091;28;20207;-76
2021/04/10 05:31:30;;;;;;;6.40;2.50;;;10.60;99.90;;;;;;5069754;28;20585;-76
2021/04/10 05:33:56;;;;;;;7.47;2.77;;;10.60;99.90;;;;;;5069726;28;20685;-76
2021/04/10 05:36:23;;;;;;;5.10;3.07;;;10.50;99.90;;;;;;5070144;28;20225;-75
2021/04/10 05:38:49;;;;;;;17.73;3.87;;;10.40;99.90;;;;;;5069795;28;20206;-76
2021/04/10 05:41:17;;;;;;;8.13;3.43;;;10.50;99.90;;;;;;5070063;28;20208;-76
2021/04/10 05:43:43;;;;;;;10.23;4.40;;;10.60;99.90;;;;;;5061748;28;20760;-76
2021/04/10 05:46:10;;;;;;;10.33;3.50;;;10.60;99.90;;;;;;5069700;28;20263;-76
2021/04/10 05:48:37;;;;;;;7.87;2.73;;;10.60;99.90;;;;;;5069783;28;20210;-78
2021/04/10 05:51:04;;;;;;;8.20;2.80;;;10.60;99.90;;;;;;5069900;28;20810;-76
2021/04/10 05:53:30;;;;;;;18.73;4.30;;;10.60;99.90;;;;;;5069896;28;20554;-76
2021/04/10 05:55:57;;;;;;;9.27;3.63;;;10.70;99.90;;;;;;5069704;28;20244;-75
2021/04/10 05:58:24;;;;;;;9.33;3.63;;;10.70;99.90;;;;;;5070078;28;20206;-74
2021/04/10 06:00:51;;;;;;;8.63;3.50;;;10.80;99.90;;;;;;5069328;28;20625;-74
2021/04/10 06:03:17;;;;;;;9.37;3.83;;;10.80;99.90;;;;;;5069246;28;20209;-75
2021/04/10 06:05:45;;;;;;;9.20;3.73;;;10.80;99.90;;;;;;5068367;28;20214;-75
2021/04/10 06:08:11;;;;;;;9.90;3.40;;;10.90;99.90;;;;;;5068418;28;20627;-76
2021/04/10 06:10:38;;;;;;;14.67;2.80;;;11.00;99.90;;;;;;5069930;28;20210;-78
2021/04/10 06:13:04;;;;;;;9.97;3.33;;;10.90;99.90;;;;;;5070141;28;20581;-76
2021/04/10 06:15:32;;;;;;;11.70;4.33;;;11.00;99.90;;;;;;5069749;28;20211;-76
2021/04/10 06:17:58;;;;;;;7.63;3.77;;;11.10;99.90;;;;;;5069205;28;20213;-74
2021/04/10 06:20:25;;;;;;;11.17;2.73;;;11.20;99.90;;;;;;5070144;28;20198;-73
2021/04/10 06:22:52;;;;;;;9.50;3.73;;;11.20;99.90;;;;;;5069523;28;20218;-73
2021/04/10 06:25:18;;;;;;;12.57;3.43;;;11.20;99.90;;;;;;5069842;28;20561;-75
2021/04/10 06:27:45;;;;;;;7.87;2.87;;;11.30;99.90;;;;;;5067804;28;20213;-75
2021/04/10 06:30:13;;;;;;;10.83;3.37;;;11.40;99.90;;;;;;5066669;28;20260;-73
2021/04/10 06:32:40;;;;;;;9.83;3.33;;;11.60;99.90;;;;;;5073225;28;20206;-75
2021/04/10 06:35:07;;;;;;;10.33;3.10;;;11.80;99.90;;;;;;5073176;28;20206;-76
2021/04/10 06:37:35;;;;;;;8.70;3.87;;;11.90;99.90;;;;;;5071790;28;20241;-74
2021/04/10 06:40:02;;;;;;;9.77;3.13;;;11.90;99.90;;;;;;5069605;28;20213;-75
2021/04/10 06:42:30;;;;;;;8.20;2.50;;;11.80;99.90;;;;;;5069073;28;20254;-76
2021/04/10 06:44:56;;;;;;;9.87;3.23;;;11.90;99.90;;;;;;5069438;28;20285;-77
2021/04/10 06:47:23;;;;;;;13.97;4.20;;;12.00;99.90;;;;;;5072901;28;20674;-81
2021/04/10 06:49:52;;;;;;;9.97;3.53;;;12.00;99.90;;;;;;5072669;28;20271;-77
2021/04/10 06:52:20;;;;;;;13.10;3.77;;;12.00;99.90;;;;;;5072002;28;20206;-80
2021/04/10 06:54:48;;;;;;;7.70;2.57;;;12.20;99.90;;;;;;5070265;28;20210;-78
2021/04/10 06:57:17;;;;;;;8.77;3.17;;;12.50;99.90;;;;;;5072652;28;20230;-79
2021/04/10 06:59:49;;;;;;;9.13;2.83;;;12.40;99.90;;;;;;5070159;28;20625;-80
2021/04/10 07:02:16;;;;;;;6.83;2.77;;;12.50;99.90;;;;;;5070185;28;20203;-77
2021/04/10 07:04:43;;;;;;;6.87;2.97;;;12.60;99.90;;;;;;5066475;28;20211;-76
2021/04/10 07:07:11;;;;;;;8.53;3.40;;;12.60;99.90;;;;;;5072567;28;20623;-76
2021/04/10 07:09:38;;;;;;;8.37;2.10;;;12.70;99.90;;;;;;5068286;28;20243;-78
2021/04/10 07:12:06;;;;;;;6.60;2.80;;;12.60;99.90;;;;;;5072692;28;20206;-79
2021/04/10 07:14:32;;;;;;;8.40;2.70;;;12.60;99.90;;;;;;5073068;28;20203;-77
2021/04/10 07:16:59;;;;;;;7.23;2.40;;;12.70;99.90;;;;;;5072209;28;20720;-79
2021/04/10 07:19:26;;;;;;;11.40;2.90;;;12.80;99.90;;;;;;5070164;28;20585;-73
2021/04/10 07:22:05;;;;;;;12.43;2.90;;;12.80;99.90;;;;;;5072185;28;20289;-72
2021/04/10 07:24:41;;;;;;;7.07;2.80;;;12.80;99.90;;;;;;5072431;28;20206;-79
2021/04/10 07:27:09;;;;;;;4.77;3.00;;;12.70;99.90;;;;;;5069346;28;20201;-81
2021/04/10 07:29:37;;;;;;;8.17;3.30;;;13.10;99.90;;;;;;5063266;28;20210;-78
2021/04/10 07:32:25;;;;;;;5.60;1.93;;;13.20;99.90;;;;;;5070798;28;20733;-78
2021/04/10 07:34:53;;;;;;;8.87;2.43;;;12.80;99.90;;;;;;5069724;28;20206;-78
2021/04/10 07:37:31;;;;;;;10.40;2.73;;;13.00;99.90;;;;;;5071427;28;20280;-76
2021/04/10 07:39:59;;;;;;;5.73;3.37;;;13.20;99.90;;;;;;5069975;28;20206;-75
2021/04/10 07:42:26;;;;;;;7.47;2.67;;;13.20;99.90;;;;;;5069855;28;20610;-78
2021/04/10 07:44:53;;;;;;;6.90;2.77;;;13.10;99.90;;;;;;5071577;28;20263;-77
2021/04/10 07:47:32;;;;;;;5.43;2.70;;;13.20;99.90;;;;;;5072168;28;20300;-78
2021/04/10 07:50:13;;;;;;;9.93;2.13;;;13.20;99.90;;;;;;5069978;28;20259;-76
2021/04/10 07:52:39;;;;;;;8.77;3.30;;;13.10;99.90;;;;;;5071483;28;20217;-81
2021/04/10 07:55:08;;;;;;;4.57;2.00;;;13.20;99.90;;;;;;5071732;28;20203;-76
2021/04/10 07:57:35;;;;;;;9.20;2.50;;;13.20;99.90;;;;;;5070206;28;20234;-73
2021/04/10 08:00:04;;;;;;;6.17;2.50;;;13.40;99.90;;;;;;5071894;28;20272;-75
2021/04/10 08:02:35;;;;;;;6.63;3.13;;;13.40;99.90;;;;;;5067899;28;20206;-75
2021/04/10 08:05:03;;;;;;;7.97;2.07;;;13.50;99.90;;;;;;5071639;28;20210;-73
2021/04/10 08:07:30;;;;;;;4.63;2.40;;;13.50;99.90;;;;;;5071266;28;20210;-78
2021/04/10 08:09:58;;;;;;;5.63;1.77;;;13.50;99.90;;;;;;5070966;28;20263;-71
2021/04/10 08:12:31;;;;;;;4.93;2.77;;;13.50;99.90;;;;;;5071039;28;20594;-76
2021/04/10 08:14:58;;;;;;;5.10;3.17;;;13.60;99.90;;;;;;5071116;28;20670;-73
2021/04/10 08:17:35;;;;;;;5.17;2.00;;;13.80;99.90;;;;;;5071299;28;20623;-74
2021/04/10 08:20:18;;;;;;;7.25;2.08;;;13.80;99.90;;;;;;5058002;28;20210;-71
2021/04/10 08:22:44;;;;;;;4.80;1.40;;;14.10;99.90;;;;;;5069979;28;20217;-71
2021/04/10 08:25:12;;;;;;;10.05;3.70;;;14.10;99.90;;;;;;5071377;28;20198;-72
2021/04/10 08:27:40;;;;;;;6.57;2.10;;;14.30;99.90;;;;;;5069045;28;20202;-71
2021/04/10 08:30:09;;;;;;;4.72;2.33;;;14.20;99.90;;;;;;5065287;28;20205;-72
2021/04/10 08:32:36;;;;;;;8.95;1.90;;;;;;;;;;5067864;28;20260;-72
2021/04/10 08:35:03;;;;;;;3.70;1.92;;;14.60;99.90;;;;;;5070563;28;20198;-74
2021/04/10 08:37:31;;;;;;;5.85;2.90;;;14.70;99.90;;;;;;5070949;28;20644;-77
2021/04/10 08:39:59;;;;;;;6.30;1.63;;;14.70;99.90;;;;;;5069135;28;20214;-77
2021/04/10 08:42:26;;;;;;;6.60;2.35;;;15.60;99.90;;;;;;5066464;28;20575;-76
2021/04/10 08:44:55;;;;;;;11.68;2.08;;;15.50;99.90;;;;;;5070323;28;20285;-77
2021/04/10 08:47:22;;;;;;;7.32;2.00;;;15.50;99.90;;;;;;5070477;28;20217;-77
2021/04/10 08:49:51;;;;;;;6.45;2.53;;;15.30;99.90;;;;;;5069815;28;20210;-83
2021/04/10 08:52:21;;;;;;;8.55;1.90;;;15.40;99.90;;;;;;5067373;28;20209;-80
2021/04/10 08:54:50;;;;;;;6.88;2.05;;;15.50;99.90;;;;;;5071900;28;20568;-77
2021/04/10 08:57:17;;;;;;;3.95;1.25;;;15.70;99.90;;;;;;5069284;28;20733;-78
2021/04/10 08:59:45;;;;;;;5.30;1.55;;;15.70;99.90;;;;;;5069807;28;20202;-77
2021/04/10 09:02:16;;;;;;;5.95;2.35;;;16.00;99.90;;;;;;5068344;28;20601;-76
2021/04/10 09:05:05;;;;;;;7.45;2.05;;;16.20;99.90;;;;;;5069264;28;20206;-79
2021/04/10 09:08:01;;;;;;;9.45;2.53;;;15.90;99.90;;;;;;5070602;28;20210;-76
2021/04/10 09:10:50;;;;;;;8.10;2.67;;;15.70;99.90;;;;;;5069666;28;20572;-76
2021/04/10 09:13:40;;;;;;;7.63;2.10;;;15.70;99.90;;;;;;5058926;28;20198;-76
2021/04/10 09:16:32;;;;;;;9.82;2.55;;;15.90;99.90;;;;;;5070147;28;20206;-76
2021/04/10 09:19:02;;;;;;;6.97;2.90;;;16.70;99.90;;;;;;5067370;28;20492;-80
2021/04/10 09:21:41;;;;;;;8.57;3.47;;;16.90;99.90;;;;;;5068720;28;20214;-77
2021/04/10 09:24:26;;;;;;;8.68;3.22;;;17.10;99.90;;;;;;5068690;28;20264;-77
2021/04/10 09:27:19;;;;;;;4.40;1.63;;;17.50;99.90;;;;;;5068065;28;20708;-77
2021/04/10 09:29:53;;;;;;;6.22;2.40;;;17.20;99.90;;;;;;5066872;28;20224;-74
2021/04/10 09:32:36;;;;;;;6.20;2.08;;;16.90;99.90;;;;;;5069605;28;20208;-82
2021/04/10 09:35:06;;;;;;;8.32;2.90;;;17.20;99.90;;;;;;5069982;28;20217;-73
2021/04/10 09:37:59;;;;;;;8.18;2.42;;;17.60;99.90;;;;;;5070115;28;20705;-77
2021/04/10 09:40:48;;;;;;;11.55;3.20;;;18.70;99.90;;;;;;5070404;28;20289;-76
2021/04/10 09:43:15;;;;;;;3.25;1.95;;;18.80;99.90;;;;;;5070266;28;20206;-78
2021/04/10 09:45:42;;;;;;;7.22;2.38;;;18.60;99.90;;;;;;5068440;28;20213;-78
2021/04/10 09:48:18;;;;;;;8.25;2.33;;;17.50;99.90;;;;;;5062655;28;20217;-75
2021/04/10 09:50:59;;;;;;;6.90;1.80;;;20.00;99.90;;;;;;5060135;28;20299;-80
2021/04/10 09:53:27;;;;;;;6.22;2.75;;;20.10;99.90;;;;;;5069653;28;21047;-79
2021/04/10 09:56:03;;;;;;;6.40;1.92;;;19.50;99.90;;;;;;5067310;28;20210;-74
2021/04/10 09:58:42;;;;;;;7.18;3.45;;;19.00;99.90;;;;;;5065564;28;20257;-77
2021/04/10 10:01:13;;;;;;;6.85;2.05;;;17.80;99.90;;;;;;5063769;28;20205;-76
2021/04/10 10:03:40;;;;;;;5.78;2.22;;;18.00;99.90;;;;;;5068133;28;20198;-72
2021/04/10 10:06:19;;;;;;;5.05;1.80;;;18.70;99.90;;;;;;5068995;28;20198;-77
2021/04/10 10:08:45;;;;;;;9.93;2.70;;;18.80;99.90;;;;;;5066630;28;20209;-76
2021/04/10 10:11:13;;;;;;;11.65;2.42;;;19.10;99.90;;;;;;5073147;28;20206;-78
2021/04/10 10:13:40;;;;;;;4.45;2.25;;;19.70;99.90;;;;;;5072706;28;20213;-76
2021/04/10 10:16:07;;;;;;;4.32;1.83;;;20.90;99.90;;;;;;5073049;28;20225;-79
2021/04/10 10:18:35;;;;;;;6.47;1.90;;;19.60;99.90;;;;;;5072921;28;20280;-80
2021/04/10 10:21:05;;;;;;;6.55;3.03;;;19.00;99.90;;;;;;5069951;28;20689;-85
2021/04/10 10:23:35;;;;;;;5.55;2.20;;;20.70;99.90;;;;;;5069255;28;20209;-75
2021/04/10 10:26:09;;;;;;;2.97;1.77;;;19.20;99.90;;;;;;5071201;28;20221;-80
2021/04/10 10:28:37;;;;;;;3.90;2.20;;;19.80;99.90;;;;;;5072445;28;20206;-73
2021/04/10 10:31:05;;;;;;;4.30;1.83;;;19.70;99.90;;;;;;5074004;28;20289;-75
2021/04/10 10:33:32;;;;;;;4.43;2.92;;;17.80;99.90;;;;;;5066603;28;20214;-74
2021/04/10 10:36:00;;;;;;;3.67;1.38;;;17.10;99.90;;;;;;5072544;28;20965;-76
2021/04/10 10:38:35;;;;;;;3.17;1.10;;;16.90;99.90;;;;;;5072982;28;20283;-76
2021/04/10 10:41:02;;;;;;;3.17;1.05;;;16.80;99.90;;;;;;5072683;28;20201;-79
2021/04/10 10:43:29;;;;;;;2.45;0.95;;;17.10;99.90;;;;;;5073270;28;20348;-77
2021/04/10 10:45:57;;;;;;;3.63;1.00;;;17.00;99.90;;;;;;5072203;28;20673;-76
2021/04/10 10:48:25;;;;;;;1.95;0.77;;;16.40;99.90;;;;;;5072656;28;20264;-74
2021/04/10 10:50:54;;;;;;;3.13;0.85;;;16.60;99.90;;;;;;5072273;28;20307;-73
2021/04/10 10:53:22;;;;;;;4.50;1.05;;;17.10;99.90;;;;;;5073184;28;20198;-76
2021/04/10 10:56:05;;;;;;;1.52;0.80;;;17.10;99.90;;;;;;5072099;28;20206;-73
2021/04/10 10:58:37;;;;;;;1.95;1.10;;;16.80;99.90;;;;;;5069624;28;20206;-74
2021/04/10 11:01:12;;;;;;;3.70;1.33;;;17.00;99.90;;;;;;5073255;28;20217;-76
2021/04/10 11:03:42;;;;;;;0.85;0.85;;;17.40;99.90;;;;;;5069563;28;20255;-75
2021/04/10 11:06:09;;;;;;;1.00;0.45;;;17.20;99.90;;;;;;5072418;28;20624;-76
2021/04/10 11:08:36;;;;;;;1.65;0.77;;;17.30;99.90;;;;;;5072874;28;20209;-73
2021/04/10 11:11:04;;;;;;;1.25;0.80;;;17.20;99.90;;;;;;5072432;28;20214;-76
2021/04/10 11:13:30;;;;;;;4.00;1.50;;;17.30;99.90;;;;;;5072765;28;20214;-74
2021/04/10 11:15:57;;;;;;;0.98;0.70;;;17.00;99.90;;;;;;5072402;28;20206;-76
2021/04/10 11:18:28;;;;;;;1.40;1.27;;;17.00;99.90;;;;;;5071284;28;20265;-76
2021/04/10 11:21:23;;;;;;;3.95;1.30;;;17.10;99.90;;;;;;5070668;28;20213;-72
2021/04/10 11:24:00;;;;;;;1.88;1.58;;;17.40;99.90;;;;;;5067448;28;20259;-73
2021/04/10 11:26:40;;;;;;;5.00;1.23;;;17.10;99.90;;;;;;5070343;28;20698;-71
2021/04/10 11:29:30;;;;;;;2.42;1.00;;;17.10;99.90;;;;;;5067538;28;20206;-75
2021/04/10 11:32:15;;;;;;;2.42;1.10;;;17.20;99.90;;;;;;5063540;28;20743;-75
2021/04/10 11:34:43;;;;;;;1.02;0.93;;;17.20;99.90;;;;;;5066764;28;20267;-76
2021/04/10 11:37:11;;;;;;;4.97;1.10;;;17.40;99.90;;;;;;5071187;28;20233;-81
2021/04/10 11:39:55;;;;;;;2.45;0.82;;;17.70;99.90;;;;;;5066785;28;20210;-74
2021/04/10 11:42:27;;;;;;;1.60;1.17;;;17.40;99.90;;;;;;5070168;28;20202;-77
2021/04/10 11:44:55;;;;;;;1.35;0.85;;;17.30;99.90;;;;;;5062467;28;20582;-82
2021/04/10 11:47:23;;;;;;;2.17;0.85;;;17.40;99.90;;;;;;5069885;28;20214;-80
2021/04/10 11:49:50;;;;;;;1.42;0.95;;;17.10;99.90;;;;;;5070086;28;20263;-77
2021/04/10 11:52:18;;;;;;;2.92;1.27;;;17.10;99.90;;;;;;5070668;28;20205;-78
2021/04/10 11:54:44;;;;;;;2.17;0.98;;;17.50;99.90;;;;;;5069136;28;20571;-77
2021/04/10 11:57:30;;;;;;;1.52;0.80;;;17.30;99.90;;;;;;5071059;28;20299;-79
2021/04/10 12:00:02;;;;;;;2.47;1.33;;;17.20;99.90;;;;;;5070533;28;20213;-77
2021/04/10 12:02:33;;;;;;;3.33;0.70;;;17.10;99.90;;;;;;5066209;28;20202;-75
2021/04/10 12:05:18;;;;;;;2.50;1.17;;;16.90;99.90;;;;;;5069882;28;20291;-77
2021/04/10 12:08:10;;;;;;;1.20;0.95;;;17.20;99.90;;;;;;5068155;28;20216;-81
2021/04/10 12:10:40;;;;;;;1.95;0.95;;;17.00;99.90;;;;;;5070450;28;20210;-76
2021/04/10 12:13:07;;;;;;;2.15;1.10;;;17.30;99.90;;;;;;5070764;28;20202;-82
2021/04/10 12:15:37;;;;;;;2.47;1.50;;;17.50;99.90;;;;;;5071079;28;20210;-82
2021/04/10 12:18:05;;;;;;;2.47;1.13;;;17.90;99.90;;;;;;5069207;28;20225;-73
2021/04/10 12:20:32;;;;;;;2.88;1.27;;;18.30;99.90;;;;;;5071924;28;20210;-84
2021/04/10 12:22:59;;;;;;;2.72;1.60;;;17.70;99.90;;;;;;5070392;28;20206;-78
2021/04/10 12:25:25;;;;;;;2.95;1.23;;;17.40;99.90;;;;;;5070873;28;20210;-78
2021/04/10 12:27:52;;;;;;;2.53;1.02;;;17.30;99.90;;;;;;5070272;28;20260;-77
2021/04/10 12:30:20;;;;;;;7.10;2.17;;;17.20;99.90;;;;;;5069292;28;20206;-81
2021/04/10 12:32:46;;;;;;;2.40;1.65;;;17.40;99.90;;;;;;5070328;28;20214;-80
2021/04/10 12:35:14;;;;;;;1.80;0.90;;;17.50;99.90;;;;;;5068632;28;20218;-79
2021/04/10 12:37:41;;;;;;;3.58;1.13;;;16.90;99.90;;;;;;5069916;28;20230;-73
2021/04/10 12:40:09;;;;;;;2.58;1.08;;;17.00;99.90;;;;;;5070902;28;20202;-75
2021/04/10 12:42:36;;;;;;;1.50;1.00;;;17.00;99.90;;;;;;5071180;28;20215;-74
2021/04/10 12:45:04;;;;;;;1.60;1.00;;;17.20;99.90;;;;;;5070542;28;20576;-77
2021/04/10 12:47:31;;;;;;;3.78;1.40;;;17.30;99.90;;;;;;5070576;28;20214;-77
2021/04/10 12:49:58;;;;;;;3.60;1.23;;;17.40;99.90;;;;;;5069010;28;20633;-75
2021/04/10 12:52:25;;;;;;;3.67;1.27;;;17.10;99.90;;;;;;5068724;28;20669;-79
2021/04/10 12:54:51;;;;;;;4.00;1.10;;;17.20;99.90;;;;;;5069684;28;20202;-79
2021/04/10 12:57:18;;;;;;;1.77;0.90;;;17.00;99.90;;;;;;5068911;28;20233;-78